sensor_id;sensor_type;location;lat;lon;timestamp;P1;durP1;ratioP1;P2;durP2;ratioP2
72427;SDS011;60419;48.880;18.036;2022-12-11T00:00:05;10.23;;;6.22;;
72427;SDS011;60419;48.880;18.036;2022-12-11T00:02:52;10.82;;;6.38;;
72427;SDS011;60419;48.880;18.036;2022-12-11T00:05:38;13.57;;;6.30;;
72427;SDS011;60419;48.880;18.036;2022-12-11T00:08:24;11.38;;;6.43;;
72427;SDS011;60419;48.880;18.036;2022-12-11T00:11:18;12.30;;;6.05;;
72427;SDS011;60419;48.880;18.036;2022-12-11T00:14:04;11.63;;;6.70;;
72427;SDS011;60419;48.880;18.036;2022-12-11T00:16:50;13.07;;;7.63;;
72427;SDS011;60419;48.880;18.036;2022-12-11T00:19:35;13.02;;;7.55;;
72427;SDS011;60419;48.880;18.036;2022-12-11T00:22:21;14.30;;;7.68;;
72427;SDS011;60419;48.880;18.036;2022-12-11T00:25:06;14.18;;;8.20;;
72427;SDS011;60419;48.880;18.036;2022-12-11T00:27:52;13.80;;;7.57;;
72427;SDS011;60419;48.880;18.036;2022-12-11T00:30:38;14.77;;;8.02;;
72427;SDS011;60419;48.880;18.036;2022-12-11T00:33:26;10.93;;;6.43;;
72427;SDS011;60419;48.880;18.036;2022-12-11T00:36:12;15.48;;;7.80;;
72427;SDS011;60419;48.880;18.036;2022-12-11T00:39:00;13.05;;;6.65;;
72427;SDS011;60419;48.880;18.036;2022-12-11T00:41:46;15.82;;;8.93;;
72427;SDS011;60419;48.880;18.036;2022-12-11T00:44:32;16.85;;;7.68;;
72427;SDS011;60419;48.880;18.036;2022-12-11T00:47:17;15.73;;;7.97;;
72427;SDS011;60419;48.880;18.036;2022-12-11T00:50:03;16.10;;;8.85;;
72427;SDS011;60419;48.880;18.036;2022-12-11T00:52:49;19.13;;;9.45;;
72427;SDS011;60419;48.880;18.036;2022-12-11T00:55:38;14.82;;;8.55;;
72427;SDS011;60419;48.880;18.036;2022-12-11T00:58:24;16.07;;;8.77;;
72427;SDS011;60419;48.880;18.036;2022-12-11T01:01:11;19.00;;;8.27;;
72427;SDS011;60419;48.880;18.036;2022-12-11T01:03:59;16.92;;;7.18;;
72427;SDS011;60419;48.880;18.036;2022-12-11T01:06:45;14.40;;;8.15;;
72427;SDS011;60419;48.880;18.036;2022-12-11T01:09:30;15.55;;;7.18;;
72427;SDS011;60419;48.880;18.036;2022-12-11T01:12:34;14.90;;;7.88;;
72427;SDS011;60419;48.880;18.036;2022-12-11T01:15:20;15.43;;;7.65;;
72427;SDS011;60419;48.880;18.036;2022-12-11T01:18:07;16.17;;;8.40;;
72427;SDS011;60419;48.880;18.036;2022-12-11T01:20:53;12.77;;;7.10;;
72427;SDS011;60419;48.880;18.036;2022-12-11T01:23:39;12.10;;;6.88;;
72427;SDS011;60419;48.880;18.036;2022-12-11T01:26:24;13.43;;;7.13;;
72427;SDS011;60419;48.880;18.036;2022-12-11T01:29:10;13.57;;;7.70;;
72427;SDS011;60419;48.880;18.036;2022-12-11T01:31:55;15.75;;;7.40;;
72427;SDS011;60419;48.880;18.036;2022-12-11T01:34:41;11.05;;;5.65;;
72427;SDS011;60419;48.880;18.036;2022-12-11T01:37:26;12.80;;;6.93;;
72427;SDS011;60419;48.880;18.036;2022-12-11T01:40:17;13.77;;;8.32;;
72427;SDS011;60419;48.880;18.036;2022-12-11T01:43:03;14.30;;;7.25;;
72427;SDS011;60419;48.880;18.036;2022-12-11T01:45:48;11.18;;;6.65;;
72427;SDS011;60419;48.880;18.036;2022-12-11T01:48:34;12.57;;;6.63;;
72427;SDS011;60419;48.880;18.036;2022-12-11T01:51:19;14.30;;;7.95;;
72427;SDS011;60419;48.880;18.036;2022-12-11T01:54:08;13.85;;;7.15;;
72427;SDS011;60419;48.880;18.036;2022-12-11T01:56:59;13.85;;;7.65;;
72427;SDS011;60419;48.880;18.036;2022-12-11T01:59:48;13.13;;;7.57;;
72427;SDS011;60419;48.880;18.036;2022-12-11T02:02:34;15.73;;;8.25;;
72427;SDS011;60419;48.880;18.036;2022-12-11T02:05:19;14.18;;;7.30;;
72427;SDS011;60419;48.880;18.036;2022-12-11T02:08:05;13.43;;;7.40;;
72427;SDS011;60419;48.880;18.036;2022-12-11T02:10:59;12.40;;;6.75;;
72427;SDS011;60419;48.880;18.036;2022-12-11T02:13:48;13.80;;;7.05;;
72427;SDS011;60419;48.880;18.036;2022-12-11T02:16:50;14.00;;;7.15;;
72427;SDS011;60419;48.880;18.036;2022-12-11T02:26:35;11.73;;;6.70;;
72427;SDS011;60419;48.880;18.036;2022-12-11T02:29:32;14.50;;;7.93;;
72427;SDS011;60419;48.880;18.036;2022-12-11T02:32:25;15.57;;;8.13;;
72427;SDS011;60419;48.880;18.036;2022-12-11T02:35:37;13.02;;;7.22;;
72427;SDS011;60419;48.880;18.036;2022-12-11T02:38:33;12.70;;;7.18;;
72427;SDS011;60419;48.880;18.036;2022-12-11T02:41:23;14.80;;;7.63;;
72427;SDS011;60419;48.880;18.036;2022-12-11T02:44:11;15.02;;;6.93;;
72427;SDS011;60419;48.880;18.036;2022-12-11T02:46:59;12.20;;;6.93;;
72427;SDS011;60419;48.880;18.036;2022-12-11T02:49:48;13.00;;;6.68;;
72427;SDS011;60419;48.880;18.036;2022-12-11T02:52:35;13.25;;;6.93;;
72427;SDS011;60419;48.880;18.036;2022-12-11T02:55:22;13.68;;;6.78;;
72427;SDS011;60419;48.880;18.036;2022-12-11T02:58:12;12.82;;;7.28;;
72427;SDS011;60419;48.880;18.036;2022-12-11T03:01:00;11.38;;;7.20;;
72427;SDS011;60419;48.880;18.036;2022-12-11T03:03:45;13.60;;;7.30;;
72427;SDS011;60419;48.880;18.036;2022-12-11T03:06:33;11.98;;;6.50;;
72427;SDS011;60419;48.880;18.036;2022-12-11T03:09:22;12.88;;;8.02;;
72427;SDS011;60419;48.880;18.036;2022-12-11T03:12:07;11.98;;;7.28;;
72427;SDS011;60419;48.880;18.036;2022-12-11T03:14:58;11.98;;;6.68;;
72427;SDS011;60419;48.880;18.036;2022-12-11T03:17:59;11.33;;;6.33;;
72427;SDS011;60419;48.880;18.036;2022-12-11T03:21:01;10.73;;;6.25;;
72427;SDS011;60419;48.880;18.036;2022-12-11T03:24:14;14.43;;;7.15;;
72427;SDS011;60419;48.880;18.036;2022-12-11T03:27:35;11.80;;;6.55;;
72427;SDS011;60419;48.880;18.036;2022-12-11T03:30:29;11.60;;;6.68;;
72427;SDS011;60419;48.880;18.036;2022-12-11T03:33:21;11.90;;;6.35;;
72427;SDS011;60419;48.880;18.036;2022-12-11T03:36:19;10.55;;;5.47;;
72427;SDS011;60419;48.880;18.036;2022-12-11T03:39:09;11.55;;;5.82;;
72427;SDS011;60419;48.880;18.036;2022-12-11T03:42:00;12.30;;;6.30;;
72427;SDS011;60419;48.880;18.036;2022-12-11T03:44:49;11.73;;;6.43;;
72427;SDS011;60419;48.880;18.036;2022-12-11T03:47:38;11.77;;;6.57;;
72427;SDS011;60419;48.880;18.036;2022-12-11T03:50:26;11.35;;;6.10;;
72427;SDS011;60419;48.880;18.036;2022-12-11T03:53:16;9.88;;;5.70;;
72427;SDS011;60419;48.880;18.036;2022-12-11T03:56:04;11.68;;;6.32;;
72427;SDS011;60419;48.880;18.036;2022-12-11T03:58:52;12.57;;;7.00;;
72427;SDS011;60419;48.880;18.036;2022-12-11T04:01:38;16.80;;;8.43;;
72427;SDS011;60419;48.880;18.036;2022-12-11T04:04:23;14.23;;;7.95;;
72427;SDS011;60419;48.880;18.036;2022-12-11T04:07:09;17.45;;;8.20;;
72427;SDS011;60419;48.880;18.036;2022-12-11T04:09:54;17.48;;;8.15;;
72427;SDS011;60419;48.880;18.036;2022-12-11T04:12:39;17.05;;;8.52;;
72427;SDS011;60419;48.880;18.036;2022-12-11T04:15:25;15.60;;;8.80;;
72427;SDS011;60419;48.880;18.036;2022-12-11T04:18:10;15.23;;;8.70;;
72427;SDS011;60419;48.880;18.036;2022-12-11T04:21:14;14.77;;;7.43;;
72427;SDS011;60419;48.880;18.036;2022-12-11T04:24:18;17.00;;;8.63;;
72427;SDS011;60419;48.880;18.036;2022-12-11T04:27:03;16.15;;;7.53;;
72427;SDS011;60419;48.880;18.036;2022-12-11T04:29:49;17.27;;;7.30;;
72427;SDS011;60419;48.880;18.036;2022-12-11T04:32:34;17.25;;;8.90;;
72427;SDS011;60419;48.880;18.036;2022-12-11T04:35:19;16.73;;;7.43;;
72427;SDS011;60419;48.880;18.036;2022-12-11T04:38:06;14.48;;;8.10;;
72427;SDS011;60419;48.880;18.036;2022-12-11T04:40:58;17.98;;;8.30;;
72427;SDS011;60419;48.880;18.036;2022-12-11T04:43:45;14.63;;;7.25;;
72427;SDS011;60419;48.880;18.036;2022-12-11T04:46:30;14.40;;;7.75;;
72427;SDS011;60419;48.880;18.036;2022-12-11T04:49:17;14.77;;;7.07;;
72427;SDS011;60419;48.880;18.036;2022-12-11T04:52:02;14.35;;;7.13;;
72427;SDS011;60419;48.880;18.036;2022-12-11T04:54:48;13.95;;;6.80;;
72427;SDS011;60419;48.880;18.036;2022-12-11T04:57:33;12.27;;;6.95;;
72427;SDS011;60419;48.880;18.036;2022-12-11T05:00:19;12.48;;;6.20;;
72427;SDS011;60419;48.880;18.036;2022-12-11T05:03:04;10.02;;;5.50;;
72427;SDS011;60419;48.880;18.036;2022-12-11T05:05:50;10.82;;;5.93;;
72427;SDS011;60419;48.880;18.036;2022-12-11T05:08:37;9.77;;;4.82;;
72427;SDS011;60419;48.880;18.036;2022-12-11T05:11:24;12.60;;;6.43;;
72427;SDS011;60419;48.880;18.036;2022-12-11T05:14:10;12.02;;;6.60;;
72427;SDS011;60419;48.880;18.036;2022-12-11T05:16:55;12.30;;;6.03;;
72427;SDS011;60419;48.880;18.036;2022-12-11T05:19:41;10.32;;;5.30;;
72427;SDS011;60419;48.880;18.036;2022-12-11T05:22:26;7.97;;;4.53;;
72427;SDS011;60419;48.880;18.036;2022-12-11T05:25:14;9.48;;;4.85;;
72427;SDS011;60419;48.880;18.036;2022-12-11T05:27:59;10.77;;;5.63;;
72427;SDS011;60419;48.880;18.036;2022-12-11T05:30:45;7.80;;;4.35;;
72427;SDS011;60419;48.880;18.036;2022-12-11T05:33:30;8.88;;;4.72;;
72427;SDS011;60419;48.880;18.036;2022-12-11T05:36:21;9.00;;;4.15;;
72427;SDS011;60419;48.880;18.036;2022-12-11T05:39:09;6.25;;;3.65;;
72427;SDS011;60419;48.880;18.036;2022-12-11T05:41:55;5.95;;;4.05;;
72427;SDS011;60419;48.880;18.036;2022-12-11T05:44:41;6.43;;;3.65;;
72427;SDS011;60419;48.880;18.036;2022-12-11T05:47:26;7.50;;;3.67;;
72427;SDS011;60419;48.880;18.036;2022-12-11T05:50:12;6.53;;;3.58;;
72427;SDS011;60419;48.880;18.036;2022-12-11T05:52:57;6.10;;;3.28;;
72427;SDS011;60419;48.880;18.036;2022-12-11T05:55:42;6.82;;;3.22;;
72427;SDS011;60419;48.880;18.036;2022-12-11T05:58:28;5.97;;;3.20;;
72427;SDS011;60419;48.880;18.036;2022-12-11T06:01:15;5.88;;;2.80;;
72427;SDS011;60419;48.880;18.036;2022-12-11T06:04:04;4.72;;;2.78;;
72427;SDS011;60419;48.880;18.036;2022-12-11T06:06:52;5.15;;;2.95;;
72427;SDS011;60419;48.880;18.036;2022-12-11T06:09:39;5.43;;;3.30;;
72427;SDS011;60419;48.880;18.036;2022-12-11T06:12:24;5.05;;;3.00;;
72427;SDS011;60419;48.880;18.036;2022-12-11T06:15:09;5.28;;;3.00;;
72427;SDS011;60419;48.880;18.036;2022-12-11T06:17:55;4.63;;;2.80;;
72427;SDS011;60419;48.880;18.036;2022-12-11T06:20:40;5.15;;;2.83;;
72427;SDS011;60419;48.880;18.036;2022-12-11T06:23:27;4.30;;;2.50;;
72427;SDS011;60419;48.880;18.036;2022-12-11T06:26:12;5.60;;;2.90;;
72427;SDS011;60419;48.880;18.036;2022-12-11T06:28:59;5.43;;;2.72;;
72427;SDS011;60419;48.880;18.036;2022-12-11T06:31:44;5.25;;;2.70;;
72427;SDS011;60419;48.880;18.036;2022-12-11T06:34:30;5.25;;;2.97;;
72427;SDS011;60419;48.880;18.036;2022-12-11T06:37:15;5.30;;;3.08;;
72427;SDS011;60419;48.880;18.036;2022-12-11T06:40:01;5.68;;;3.38;;
72427;SDS011;60419;48.880;18.036;2022-12-11T06:42:47;6.15;;;3.30;;
72427;SDS011;60419;48.880;18.036;2022-12-11T06:45:32;6.03;;;3.00;;
72427;SDS011;60419;48.880;18.036;2022-12-11T06:48:18;5.38;;;2.83;;
72427;SDS011;60419;48.880;18.036;2022-12-11T06:51:08;7.43;;;3.13;;
72427;SDS011;60419;48.880;18.036;2022-12-11T06:53:57;6.05;;;3.15;;
72427;SDS011;60419;48.880;18.036;2022-12-11T06:56:42;5.75;;;3.10;;
72427;SDS011;60419;48.880;18.036;2022-12-11T06:59:28;5.30;;;2.60;;
72427;SDS011;60419;48.880;18.036;2022-12-11T07:02:17;6.38;;;3.08;;
72427;SDS011;60419;48.880;18.036;2022-12-11T07:05:03;5.78;;;3.30;;
72427;SDS011;60419;48.880;18.036;2022-12-11T07:07:51;5.38;;;2.95;;
72427;SDS011;60419;48.880;18.036;2022-12-11T07:10:37;5.22;;;3.10;;
72427;SDS011;60419;48.880;18.036;2022-12-11T07:13:23;5.38;;;3.13;;
72427;SDS011;60419;48.880;18.036;2022-12-11T07:16:09;6.45;;;3.13;;
72427;SDS011;60419;48.880;18.036;2022-12-11T07:18:56;5.78;;;3.08;;
72427;SDS011;60419;48.880;18.036;2022-12-11T07:21:41;6.32;;;3.67;;
72427;SDS011;60419;48.880;18.036;2022-12-11T07:24:26;5.78;;;3.00;;
72427;SDS011;60419;48.880;18.036;2022-12-11T07:27:12;5.43;;;3.00;;
72427;SDS011;60419;48.880;18.036;2022-12-11T07:29:57;5.30;;;3.03;;
72427;SDS011;60419;48.880;18.036;2022-12-11T07:32:43;4.43;;;2.40;;
72427;SDS011;60419;48.880;18.036;2022-12-11T07:35:28;5.07;;;2.80;;
72427;SDS011;60419;48.880;18.036;2022-12-11T07:38:14;5.40;;;2.55;;
72427;SDS011;60419;48.880;18.036;2022-12-11T07:41:00;4.43;;;2.88;;
72427;SDS011;60419;48.880;18.036;2022-12-11T07:43:46;5.32;;;2.80;;
72427;SDS011;60419;48.880;18.036;2022-12-11T07:46:32;4.60;;;2.75;;
72427;SDS011;60419;48.880;18.036;2022-12-11T07:49:18;7.18;;;3.22;;
72427;SDS011;60419;48.880;18.036;2022-12-11T07:52:03;5.03;;;2.63;;
72427;SDS011;60419;48.880;18.036;2022-12-11T07:54:49;5.65;;;2.88;;
72427;SDS011;60419;48.880;18.036;2022-12-11T07:57:34;5.00;;;2.80;;
72427;SDS011;60419;48.880;18.036;2022-12-11T08:00:20;7.50;;;3.45;;
72427;SDS011;60419;48.880;18.036;2022-12-11T08:03:05;6.63;;;3.60;;
72427;SDS011;60419;48.880;18.036;2022-12-11T08:05:51;6.53;;;3.20;;
72427;SDS011;60419;48.880;18.036;2022-12-11T08:08:37;5.10;;;3.10;;
72427;SDS011;60419;48.880;18.036;2022-12-11T08:11:23;5.38;;;2.97;;
72427;SDS011;60419;48.880;18.036;2022-12-11T08:14:09;5.38;;;3.22;;
72427;SDS011;60419;48.880;18.036;2022-12-11T08:16:55;5.53;;;3.03;;
72427;SDS011;60419;48.880;18.036;2022-12-11T08:19:41;5.40;;;3.28;;
72427;SDS011;60419;48.880;18.036;2022-12-11T08:22:27;6.55;;;3.80;;
72427;SDS011;60419;48.880;18.036;2022-12-11T08:25:12;7.25;;;3.45;;
72427;SDS011;60419;48.880;18.036;2022-12-11T08:27:58;6.40;;;3.53;;
72427;SDS011;60419;48.880;18.036;2022-12-11T08:30:43;6.78;;;3.15;;
72427;SDS011;60419;48.880;18.036;2022-12-11T08:33:28;5.43;;;3.08;;
72427;SDS011;60419;48.880;18.036;2022-12-11T08:36:14;6.45;;;3.10;;
72427;SDS011;60419;48.880;18.036;2022-12-11T08:39:02;5.38;;;2.75;;
72427;SDS011;60419;48.880;18.036;2022-12-11T08:41:47;5.80;;;3.13;;
72427;SDS011;60419;48.880;18.036;2022-12-11T08:44:33;7.35;;;3.22;;
72427;SDS011;60419;48.880;18.036;2022-12-11T08:47:18;7.78;;;4.03;;
72427;SDS011;60419;48.880;18.036;2022-12-11T08:50:04;6.93;;;3.58;;
72427;SDS011;60419;48.880;18.036;2022-12-11T08:52:49;7.15;;;3.47;;
72427;SDS011;60419;48.880;18.036;2022-12-11T08:55:35;7.13;;;4.07;;
72427;SDS011;60419;48.880;18.036;2022-12-11T08:58:21;7.05;;;3.75;;
72427;SDS011;60419;48.880;18.036;2022-12-11T09:01:07;8.15;;;4.13;;
72427;SDS011;60419;48.880;18.036;2022-12-11T09:04:10;6.38;;;3.30;;
72427;SDS011;60419;48.880;18.036;2022-12-11T09:06:56;8.40;;;4.15;;
72427;SDS011;60419;48.880;18.036;2022-12-11T09:09:41;7.28;;;3.90;;
72427;SDS011;60419;48.880;18.036;2022-12-11T09:12:27;6.75;;;3.75;;
72427;SDS011;60419;48.880;18.036;2022-12-11T09:15:12;6.65;;;3.95;;
72427;SDS011;60419;48.880;18.036;2022-12-11T09:17:58;8.27;;;4.50;;
72427;SDS011;60419;48.880;18.036;2022-12-11T09:20:43;8.25;;;3.15;;
72427;SDS011;60419;48.880;18.036;2022-12-11T09:23:28;6.97;;;3.88;;
72427;SDS011;60419;48.880;18.036;2022-12-11T09:26:15;8.25;;;4.30;;
72427;SDS011;60419;48.880;18.036;2022-12-11T09:29:04;8.40;;;3.90;;
72427;SDS011;60419;48.880;18.036;2022-12-11T09:31:50;7.90;;;3.97;;
72427;SDS011;60419;48.880;18.036;2022-12-11T09:34:35;8.55;;;4.47;;
72427;SDS011;60419;48.880;18.036;2022-12-11T09:37:21;8.82;;;4.30;;
72427;SDS011;60419;48.880;18.036;2022-12-11T09:40:08;10.63;;;4.28;;
72427;SDS011;60419;48.880;18.036;2022-12-11T09:46:09;7.43;;;3.95;;
72427;SDS011;60419;48.880;18.036;2022-12-11T09:48:56;8.18;;;4.30;;
72427;SDS011;60419;48.880;18.036;2022-12-11T09:51:43;8.18;;;4.43;;
72427;SDS011;60419;48.880;18.036;2022-12-11T09:54:36;6.90;;;4.00;;
72427;SDS011;60419;48.880;18.036;2022-12-11T09:57:31;7.45;;;4.13;;
72427;SDS011;60419;48.880;18.036;2022-12-11T10:00:46;8.02;;;4.20;;
72427;SDS011;60419;48.880;18.036;2022-12-11T10:15:25;9.82;;;4.07;;
72427;SDS011;60419;48.880;18.036;2022-12-11T10:18:16;9.38;;;5.07;;
72427;SDS011;60419;48.880;18.036;2022-12-11T10:21:06;9.95;;;4.82;;
72427;SDS011;60419;48.880;18.036;2022-12-11T10:23:55;10.68;;;5.03;;
72427;SDS011;60419;48.880;18.036;2022-12-11T10:26:44;11.30;;;5.75;;
72427;SDS011;60419;48.880;18.036;2022-12-11T10:29:31;9.43;;;4.90;;
72427;SDS011;60419;48.880;18.036;2022-12-11T10:32:23;11.20;;;5.45;;
72427;SDS011;60419;48.880;18.036;2022-12-11T10:35:17;10.43;;;5.18;;
72427;SDS011;60419;48.880;18.036;2022-12-11T10:38:33;10.57;;;4.95;;
72427;SDS011;60419;48.880;18.036;2022-12-11T10:47:14;9.45;;;4.82;;
72427;SDS011;60419;48.880;18.036;2022-12-11T10:50:02;9.63;;;4.95;;
72427;SDS011;60419;48.880;18.036;2022-12-11T10:52:48;10.70;;;5.82;;
72427;SDS011;60419;48.880;18.036;2022-12-11T10:55:43;8.65;;;5.22;;
72427;SDS011;60419;48.880;18.036;2022-12-11T10:58:31;10.38;;;5.13;;
72427;SDS011;60419;48.880;18.036;2022-12-11T11:01:22;11.10;;;4.93;;
72427;SDS011;60419;48.880;18.036;2022-12-11T11:04:14;10.70;;;5.60;;
72427;SDS011;60419;48.880;18.036;2022-12-11T11:07:15;8.95;;;5.07;;
72427;SDS011;60419;48.880;18.036;2022-12-11T11:12:59;10.85;;;5.20;;
72427;SDS011;60419;48.880;18.036;2022-12-11T11:15:46;10.60;;;5.88;;
72427;SDS011;60419;48.880;18.036;2022-12-11T11:18:31;9.68;;;4.97;;
72427;SDS011;60419;48.880;18.036;2022-12-11T11:21:19;9.35;;;4.63;;
72427;SDS011;60419;48.880;18.036;2022-12-11T11:24:18;9.23;;;5.28;;
72427;SDS011;60419;48.880;18.036;2022-12-11T11:27:20;10.63;;;5.68;;
72427;SDS011;60419;48.880;18.036;2022-12-11T11:30:17;12.15;;;5.65;;
72427;SDS011;60419;48.880;18.036;2022-12-11T11:33:14;9.90;;;5.40;;
72427;SDS011;60419;48.880;18.036;2022-12-11T11:36:06;10.10;;;5.05;;
72427;SDS011;60419;48.880;18.036;2022-12-11T11:42:18;11.93;;;5.85;;
72427;SDS011;60419;48.880;18.036;2022-12-11T11:45:13;8.75;;;4.13;;
72427;SDS011;60419;48.880;18.036;2022-12-11T11:48:09;10.50;;;4.78;;
72427;SDS011;60419;48.880;18.036;2022-12-11T11:51:06;11.13;;;5.22;;
72427;SDS011;60419;48.880;18.036;2022-12-11T11:54:00;11.15;;;5.63;;
72427;SDS011;60419;48.880;18.036;2022-12-11T11:56:53;11.75;;;6.07;;
72427;SDS011;60419;48.880;18.036;2022-12-11T11:59:42;9.27;;;5.03;;
72427;SDS011;60419;48.880;18.036;2022-12-11T12:02:32;10.93;;;6.00;;
72427;SDS011;60419;48.880;18.036;2022-12-11T12:05:19;9.77;;;4.85;;
72427;SDS011;60419;48.880;18.036;2022-12-11T12:08:20;10.60;;;5.95;;
72427;SDS011;60419;48.880;18.036;2022-12-11T12:11:17;15.05;;;7.65;;
72427;SDS011;60419;48.880;18.036;2022-12-11T12:17:14;12.07;;;6.35;;
72427;SDS011;60419;48.880;18.036;2022-12-11T12:29:47;10.60;;;5.57;;
72427;SDS011;60419;48.880;18.036;2022-12-11T12:32:53;9.73;;;5.78;;
72427;SDS011;60419;48.880;18.036;2022-12-11T12:36:08;12.18;;;6.32;;
72427;SDS011;60419;48.880;18.036;2022-12-11T12:48:16;12.35;;;6.68;;
72427;SDS011;60419;48.880;18.036;2022-12-11T12:51:01;13.38;;;7.07;;
72427;SDS011;60419;48.880;18.036;2022-12-11T12:53:58;13.80;;;7.07;;
72427;SDS011;60419;48.880;18.036;2022-12-11T12:56:47;12.88;;;7.15;;
72427;SDS011;60419;48.880;18.036;2022-12-11T12:59:33;9.68;;;5.78;;
72427;SDS011;60419;48.880;18.036;2022-12-11T13:02:18;12.98;;;6.20;;
72427;SDS011;60419;48.880;18.036;2022-12-11T13:05:05;12.35;;;6.85;;
72427;SDS011;60419;48.880;18.036;2022-12-11T13:08:04;11.73;;;6.97;;
72427;SDS011;60419;48.880;18.036;2022-12-11T13:10:55;11.45;;;6.25;;
72427;SDS011;60419;48.880;18.036;2022-12-11T13:13:48;10.77;;;6.25;;
72427;SDS011;60419;48.880;18.036;2022-12-11T13:16:48;10.27;;;5.55;;
72427;SDS011;60419;48.880;18.036;2022-12-11T13:19:35;12.82;;;6.80;;
72427;SDS011;60419;48.880;18.036;2022-12-11T13:22:21;14.43;;;6.32;;
72427;SDS011;60419;48.880;18.036;2022-12-11T13:25:27;12.75;;;6.60;;
72427;SDS011;60419;48.880;18.036;2022-12-11T13:28:24;12.40;;;6.18;;
72427;SDS011;60419;48.880;18.036;2022-12-11T13:34:17;13.52;;;6.75;;
72427;SDS011;60419;48.880;18.036;2022-12-11T13:37:15;11.90;;;6.32;;
72427;SDS011;60419;48.880;18.036;2022-12-11T13:40:19;10.90;;;5.93;;
72427;SDS011;60419;48.880;18.036;2022-12-11T13:43:06;12.27;;;6.30;;
72427;SDS011;60419;48.880;18.036;2022-12-11T13:46:05;12.02;;;6.10;;
72427;SDS011;60419;48.880;18.036;2022-12-11T13:49:00;12.45;;;6.72;;
72427;SDS011;60419;48.880;18.036;2022-12-11T13:51:52;9.52;;;5.93;;
72427;SDS011;60419;48.880;18.036;2022-12-11T13:54:46;11.55;;;6.95;;
72427;SDS011;60419;48.880;18.036;2022-12-11T13:57:33;12.07;;;6.15;;
72427;SDS011;60419;48.880;18.036;2022-12-11T14:00:30;12.82;;;6.07;;
72427;SDS011;60419;48.880;18.036;2022-12-11T14:03:16;12.25;;;6.70;;
72427;SDS011;60419;48.880;18.036;2022-12-11T14:06:02;17.08;;;6.70;;
72427;SDS011;60419;48.880;18.036;2022-12-11T14:08:49;12.38;;;6.90;;
72427;SDS011;60419;48.880;18.036;2022-12-11T14:11:40;11.95;;;7.13;;
72427;SDS011;60419;48.880;18.036;2022-12-11T14:14:42;10.85;;;6.05;;
72427;SDS011;60419;48.880;18.036;2022-12-11T14:17:33;14.55;;;6.97;;
72427;SDS011;60419;48.880;18.036;2022-12-11T14:20:21;12.05;;;7.07;;
72427;SDS011;60419;48.880;18.036;2022-12-11T14:23:19;15.20;;;7.78;;
72427;SDS011;60419;48.880;18.036;2022-12-11T14:26:17;13.50;;;7.88;;
72427;SDS011;60419;48.880;18.036;2022-12-11T14:29:32;14.18;;;7.35;;
72427;SDS011;60419;48.880;18.036;2022-12-11T14:32:19;13.27;;;7.15;;
72427;SDS011;60419;48.880;18.036;2022-12-11T14:35:25;12.30;;;6.53;;
72427;SDS011;60419;48.880;18.036;2022-12-11T14:38:17;12.40;;;7.25;;
72427;SDS011;60419;48.880;18.036;2022-12-11T14:41:11;12.73;;;6.95;;
72427;SDS011;60419;48.880;18.036;2022-12-11T14:44:00;13.07;;;7.00;;
72427;SDS011;60419;48.880;18.036;2022-12-11T14:47:10;13.18;;;7.07;;
72427;SDS011;60419;48.880;18.036;2022-12-11T14:52:52;12.63;;;7.10;;
72427;SDS011;60419;48.880;18.036;2022-12-11T14:55:43;12.82;;;7.40;;
72427;SDS011;60419;48.880;18.036;2022-12-11T14:58:31;12.25;;;6.93;;
72427;SDS011;60419;48.880;18.036;2022-12-11T15:01:32;13.35;;;7.00;;
72427;SDS011;60419;48.880;18.036;2022-12-11T15:04:21;13.02;;;6.90;;
72427;SDS011;60419;48.880;18.036;2022-12-11T15:07:20;13.60;;;7.35;;
72427;SDS011;60419;48.880;18.036;2022-12-11T15:10:06;12.77;;;7.03;;
72427;SDS011;60419;48.880;18.036;2022-12-11T15:12:52;13.30;;;7.32;;
72427;SDS011;60419;48.880;18.036;2022-12-11T15:15:45;15.13;;;8.25;;
72427;SDS011;60419;48.880;18.036;2022-12-11T15:18:35;14.48;;;7.32;;
72427;SDS011;60419;48.880;18.036;2022-12-11T15:21:27;14.35;;;8.15;;
72427;SDS011;60419;48.880;18.036;2022-12-11T15:24:25;13.77;;;7.65;;
72427;SDS011;60419;48.880;18.036;2022-12-11T15:27:22;12.60;;;7.00;;
72427;SDS011;60419;48.880;18.036;2022-12-11T15:35:57;14.02;;;6.72;;
72427;SDS011;60419;48.880;18.036;2022-12-11T15:38:45;11.23;;;6.38;;
72427;SDS011;60419;48.880;18.036;2022-12-11T15:41:31;13.93;;;7.15;;
72427;SDS011;60419;48.880;18.036;2022-12-11T15:44:19;13.48;;;7.30;;
72427;SDS011;60419;48.880;18.036;2022-12-11T15:47:19;14.77;;;6.80;;
72427;SDS011;60419;48.880;18.036;2022-12-11T15:53:04;13.23;;;7.35;;
72427;SDS011;60419;48.880;18.036;2022-12-11T15:55:50;14.98;;;8.35;;
72427;SDS011;60419;48.880;18.036;2022-12-11T15:58:36;14.43;;;7.70;;
72427;SDS011;60419;48.880;18.036;2022-12-11T16:01:22;11.93;;;6.53;;
72427;SDS011;60419;48.880;18.036;2022-12-11T16:04:07;13.60;;;6.57;;
72427;SDS011;60419;48.880;18.036;2022-12-11T16:06:52;13.27;;;7.13;;
72427;SDS011;60419;48.880;18.036;2022-12-11T16:09:39;13.02;;;7.40;;
72427;SDS011;60419;48.880;18.036;2022-12-11T16:12:24;13.70;;;6.63;;
72427;SDS011;60419;48.880;18.036;2022-12-11T16:15:10;16.00;;;7.80;;
72427;SDS011;60419;48.880;18.036;2022-12-11T16:17:58;13.90;;;7.28;;
72427;SDS011;60419;48.880;18.036;2022-12-11T16:20:47;13.95;;;7.57;;
72427;SDS011;60419;48.880;18.036;2022-12-11T16:23:33;12.68;;;7.57;;
72427;SDS011;60419;48.880;18.036;2022-12-11T16:26:19;15.57;;;8.90;;
72427;SDS011;60419;48.880;18.036;2022-12-11T16:29:04;14.85;;;8.00;;
72427;SDS011;60419;48.880;18.036;2022-12-11T16:31:49;12.05;;;6.35;;
72427;SDS011;60419;48.880;18.036;2022-12-11T16:34:35;15.25;;;6.97;;
72427;SDS011;60419;48.880;18.036;2022-12-11T16:37:21;14.43;;;7.55;;
72427;SDS011;60419;48.880;18.036;2022-12-11T16:40:07;12.93;;;7.63;;
72427;SDS011;60419;48.880;18.036;2022-12-11T16:42:53;13.38;;;7.70;;
72427;SDS011;60419;48.880;18.036;2022-12-11T16:45:38;14.95;;;7.32;;
72427;SDS011;60419;48.880;18.036;2022-12-11T16:48:24;15.27;;;7.75;;
72427;SDS011;60419;48.880;18.036;2022-12-11T16:51:10;13.10;;;7.75;;
72427;SDS011;60419;48.880;18.036;2022-12-11T16:53:56;15.35;;;7.53;;
72427;SDS011;60419;48.880;18.036;2022-12-11T16:56:41;14.95;;;8.10;;
72427;SDS011;60419;48.880;18.036;2022-12-11T16:59:27;14.75;;;7.78;;
72427;SDS011;60419;48.880;18.036;2022-12-11T17:02:12;13.27;;;7.93;;
72427;SDS011;60419;48.880;18.036;2022-12-11T17:04:58;15.25;;;8.90;;
72427;SDS011;60419;48.880;18.036;2022-12-11T17:07:43;14.77;;;7.82;;
72427;SDS011;60419;48.880;18.036;2022-12-11T17:10:28;14.95;;;8.38;;
72427;SDS011;60419;48.880;18.036;2022-12-11T17:13:14;15.30;;;8.38;;
72427;SDS011;60419;48.880;18.036;2022-12-11T17:16:02;14.60;;;7.82;;
72427;SDS011;60419;48.880;18.036;2022-12-11T17:18:52;17.10;;;8.45;;
72427;SDS011;60419;48.880;18.036;2022-12-11T17:21:37;15.75;;;8.75;;
72427;SDS011;60419;48.880;18.036;2022-12-11T17:24:23;16.88;;;8.52;;
72427;SDS011;60419;48.880;18.036;2022-12-11T17:27:08;13.82;;;7.55;;
72427;SDS011;60419;48.880;18.036;2022-12-11T17:29:53;17.60;;;8.40;;
72427;SDS011;60419;48.880;18.036;2022-12-11T17:32:39;15.05;;;7.88;;
72427;SDS011;60419;48.880;18.036;2022-12-11T17:35:24;14.77;;;8.57;;
72427;SDS011;60419;48.880;18.036;2022-12-11T17:38:09;14.77;;;8.52;;
72427;SDS011;60419;48.880;18.036;2022-12-11T17:40:55;16.20;;;8.80;;
72427;SDS011;60419;48.880;18.036;2022-12-11T17:43:41;17.20;;;9.88;;